»·PEaware :: WAT306 KBOI-KOAK

WAT306 :: KBOI-KOAK

FLIGHT INFORMATION

Flight Status: Arrived
Operator:
Walker Air Transport
More flights by this operator :: More flights under this callsign
Pilot: Ethan S. (29221)
Aircraft: SOCATA TBM-900
(TBM9)
More flights by this aircraft type
Origin: KBOI Boise Air Terminal/Gowen
United States
Destination: KOAK Metro Oakland Intl
United States
More flights between these airports :: More routes between these airports
Route: +BOI3 HYVAL REO MEEAD RBUCL WNDSR2
File this flight plan on PilotEdge
Remarks:
Altitude:
(Current/Filed)
30,000ft
Speed:
(Current/Filed)
320kts
Departed: 18-Oct-20 08:30 AM
Arrived: 18-Oct-20 10:27 AM
Distance/Time
Traveled:
443nm/1:57
Distance/Time
To Go:
Arrived

Flight Plot

Page will automatically refresh every two minutes.

Flight plan parsing failed; only flown route is shown


Map Options




Map Legend


Flown Route
Filed Route
Departure Airport
Arrival Airport
Navaid (VOR, NDB)
Fix

Horizontal Profiles

Position Reports

Time Latitude Longitude Heading Altitude Ground
Speed
18-Oct-20 08:16 43.569843 -116.228783 182 2837ft 0kts
18-Oct-20 08:17 43.569843 -116.228783 182 2837ft 0kts
18-Oct-20 08:18 43.569843 -116.228783 182 2837ft 0kts
18-Oct-20 08:19 43.569843 -116.228783 182 2837ft 0kts
18-Oct-20 08:20 43.569843 -116.228783 182 2837ft 0kts
18-Oct-20 08:21 43.569843 -116.228783 182 2837ft 0kts
18-Oct-20 08:22 43.569843 -116.228783 182 2837ft 0kts
18-Oct-20 08:23 43.569843 -116.228783 182 2837ft 0kts
18-Oct-20 08:24 43.569843 -116.228783 182 2837ft 0kts
18-Oct-20 08:25 43.569392 -116.231077 286 2833ft 11kts
18-Oct-20 08:26 43.570926 -116.236216 226 2824ft 0kts
18-Oct-20 08:27 43.570926 -116.236216 226 2824ft 0kts
18-Oct-20 08:28 43.570340 -116.236607 198 2824ft 6kts
18-Oct-20 08:29 43.561609 -116.211708 113 3308ft 122kts
18-Oct-20 08:30 43.544593 -116.166758 111 5165ft 127kts
18-Oct-20 08:31 43.529707 -116.120579 106 6953ft 134kts
18-Oct-20 08:32 43.503913 -116.083904 210 9205ft 137kts
18-Oct-20 08:33 43.484009 -116.121633 249 11485ft 125kts
18-Oct-20 08:34 43.465158 -116.165113 253 13660ft 130kts
18-Oct-20 08:35 43.446695 -116.208409 255 15754ft 129kts
18-Oct-20 08:36 43.428149 -116.251971 256 17817ft 130kts
18-Oct-20 08:37 43.409701 -116.295211 258 20031ft 127kts
18-Oct-20 08:38 43.391474 -116.337915 258 22152ft 126kts
18-Oct-20 08:39 43.373180 -116.380720 260 24258ft 127kts
18-Oct-20 08:40 43.355086 -116.422953 260 26434ft 124kts
18-Oct-20 08:41 43.337134 -116.464823 260 28493ft 124kts
18-Oct-20 08:42 43.319144 -116.506937 260 30183ft 135kts
18-Oct-20 08:43 43.293627 -116.566495 254 30180ft 203kts
18-Oct-20 08:44 43.262134 -116.639129 253 30159ft 224kts
18-Oct-20 08:45 43.229099 -116.715439 252 30173ft 232kts
18-Oct-20 08:46 43.194961 -116.794147 252 30168ft 236kts
18-Oct-20 08:47 43.160512 -116.873372 253 30162ft 237kts
18-Oct-20 08:48 43.123051 -116.951938 247 30163ft 246kts
18-Oct-20 08:49 43.079683 -117.027947 246 30163ft 249kts
18-Oct-20 08:50 43.035360 -117.105041 247 30153ft 252kts
18-Oct-20 08:51 42.990528 -117.182972 245 30181ft 256kts
18-Oct-20 08:52 42.944710 -117.262289 244 30200ft 261kts
18-Oct-20 08:53 42.898165 -117.342649 242 30209ft 266kts
18-Oct-20 08:54 42.850958 -117.423832 242 30203ft 269kts
18-Oct-20 08:55 42.802141 -117.507618 242 30203ft 270kts
18-Oct-20 08:56 42.753042 -117.591672 242 30202ft 271kts
18-Oct-20 08:57 42.703690 -117.675903 241 30213ft 271kts
18-Oct-20 08:58 42.654095 -117.760343 241 30212ft 273kts
18-Oct-20 08:59 42.604120 -117.845162 241 30212ft 274kts
18-Oct-20 09:00 42.540654 -117.916504 227 30211ft 289kts
18-Oct-20 09:01 42.471212 -117.983740 227 30211ft 289kts
18-Oct-20 09:02 42.402261 -118.050285 227 30211ft 289kts
18-Oct-20 09:03 42.332878 -118.117047 227 30209ft 289kts
18-Oct-20 09:04 42.263995 -118.183157 227 30209ft 289kts
18-Oct-20 09:05 42.194814 -118.249364 227 30209ft 289kts
18-Oct-20 09:06 42.125766 -118.315268 227 30209ft 289kts
18-Oct-20 09:07 42.056763 -118.380947 227 30208ft 289kts
18-Oct-20 09:08 41.988520 -118.445730 227 30208ft 289kts
18-Oct-20 09:09 41.920005 -118.510598 227 30207ft 289kts
18-Oct-20 09:10 41.852063 -118.574739 227 30200ft 288kts
18-Oct-20 09:11 41.783376 -118.639431 227 30197ft 287kts
18-Oct-20 09:12 41.715875 -118.702829 226 30215ft 288kts
18-Oct-20 09:13 41.649127 -118.765365 226 30238ft 289kts
18-Oct-20 09:14 41.582263 -118.827839 226 30257ft 289kts
18-Oct-20 09:15 41.513765 -118.891688 225 30257ft 291kts
18-Oct-20 09:16 41.444431 -118.956129 225 30257ft 294kts
18-Oct-20 09:17 41.375163 -119.020345 225 30257ft 296kts
18-Oct-20 09:18 41.305282 -119.084929 224 30262ft 297kts
18-Oct-20 09:19 41.234707 -119.150009 224 30266ft 298kts
18-Oct-20 09:20 41.164244 -119.214807 224 30259ft 299kts
18-Oct-20 09:21 41.093272 -119.279955 224 30245ft 299kts
18-Oct-20 09:22 41.027720 -119.348556 234 30262ft 291kts
18-Oct-20 09:23 40.971114 -119.429310 232 30272ft 294kts
18-Oct-20 09:25 40.913839 -119.510843 232 30290ft 297kts
18-Oct-20 09:26 40.856153 -119.592805 232 30293ft 298kts
18-Oct-20 09:27 40.798937 -119.673888 231 30302ft 298kts
18-Oct-20 09:28 40.741225 -119.755459 231 30303ft 299kts
18-Oct-20 09:29 40.683461 -119.836874 231 30302ft 299kts
18-Oct-20 09:30 40.625625 -119.918168 231 30302ft 299kts
18-Oct-20 09:31 40.567671 -119.999408 231 30301ft 299kts
18-Oct-20 09:32 40.509614 -120.080573 231 30301ft 299kts
18-Oct-20 09:33 40.451701 -120.161318 231 30301ft 299kts
18-Oct-20 09:34 40.393482 -120.242270 231 30301ft 299kts
18-Oct-20 09:35 40.335566 -120.322586 231 30300ft 299kts
18-Oct-20 09:36 40.277223 -120.403278 231 30300ft 299kts
18-Oct-20 09:37 40.219035 -120.483538 231 30300ft 299kts
18-Oct-20 09:38 40.160589 -120.563943 231 30299ft 299kts
18-Oct-20 09:39 40.102235 -120.644003 231 30299ft 299kts
18-Oct-20 09:40 40.043531 -120.724326 231 30305ft 300kts
18-Oct-20 09:41 39.984788 -120.804492 231 30303ft 300kts
18-Oct-20 09:41 39.935962 -120.870963 231 30284ft 301kts
18-Oct-20 09:43 39.867099 -120.964463 231 30224ft 302kts
18-Oct-20 09:43 39.817787 -121.031256 230 30174ft 302kts
18-Oct-20 09:45 39.748652 -121.124629 230 30135ft 302kts
18-Oct-20 09:45 39.699161 -121.191292 230 30107ft 302kts
18-Oct-20 09:46 39.639810 -121.271027 230 30113ft 302kts
18-Oct-20 09:47 39.580348 -121.350722 230 30122ft 302kts
18-Oct-20 09:48 39.520857 -121.430246 230 30107ft 302kts
18-Oct-20 09:49 39.461187 -121.509793 230 30091ft 302kts
18-Oct-20 09:50 39.401640 -121.588970 230 30090ft 302kts
18-Oct-20 09:51 39.342120 -121.667911 229 30099ft 302kts
18-Oct-20 09:52 39.282233 -121.747131 229 30098ft 303kts
18-Oct-20 09:53 39.222357 -121.826124 229 30094ft 303kts
18-Oct-20 09:54 39.162199 -121.905290 229 30092ft 303kts
18-Oct-20 09:55 39.102263 -121.983954 229 30092ft 303kts
18-Oct-20 09:56 39.040338 -122.060984 226 29981ft 308kts
18-Oct-20 09:57 38.970253 -122.143025 224 27919ft 358kts
18-Oct-20 09:58 38.894036 -122.231877 221 26157ft 358kts
18-Oct-20 09:59 38.820877 -122.317050 221 24609ft 351kts
18-Oct-20 10:00 38.747484 -122.402414 222 23089ft 340kts
18-Oct-20 10:01 38.671181 -122.474232 185 21944ft 330kts
18-Oct-20 10:02 38.576116 -122.462564 171 19957ft 337kts
18-Oct-20 10:03 38.482028 -122.448236 172 17992ft 332kts
18-Oct-20 10:04 38.389961 -122.434244 172 16077ft 323kts
18-Oct-20 10:05 38.299787 -122.420574 173 14204ft 319kts
18-Oct-20 10:06 38.210840 -122.407043 173 12243ft 318kts
18-Oct-20 10:07 38.122826 -122.393575 173 9714ft 289kts
18-Oct-20 10:08 38.045785 -122.381797 173 7533ft 264kts
18-Oct-20 10:09 37.984720 -122.344155 142 6996ft 244kts
18-Oct-20 10:10 37.928510 -122.290477 142 6988ft 252kts
18-Oct-20 10:11 37.871609 -122.236275 142 6984ft 251kts
18-Oct-20 10:12 37.812879 -122.180440 142 5747ft 278kts
18-Oct-20 10:13 37.776971 -122.113182 103 4991ft 205kts
18-Oct-20 10:14 37.768441 -122.040404 83 5005ft 206kts
18-Oct-20 10:15 37.773808 -121.965875 83 5000ft 208kts
18-Oct-20 10:16 37.779221 -121.890984 83 4999ft 208kts
18-Oct-20 10:17 37.765160 -121.826653 170 4987ft 211kts
18-Oct-20 10:18 37.705504 -121.833231 186 5000ft 212kts
18-Oct-20 10:19 37.659203 -121.868804 245 5006ft 208kts
18-Oct-20 10:20 37.639401 -121.939940 288 4176ft 202kts
18-Oct-20 10:21 37.661527 -122.009954 293 3390ft 204kts
18-Oct-20 10:22 37.682590 -122.074584 293 2192ft 198kts
18-Oct-20 10:23 37.699954 -122.128030 293 1314ft 125kts
18-Oct-20 10:24 37.711069 -122.162285 293 722ft 91kts
18-Oct-20 10:25 37.720804 -122.192233 292 259ft 90kts
18-Oct-20 10:26 37.727865 -122.212709 347 6ft 10kts
18-Oct-20 10:27 37.728986 -122.212187 111 6ft 13kts
18-Oct-20 10:28 37.728599 -122.209996 125 6ft 0kts
18-Oct-20 10:29 37.728598 -122.209996 125 6ft 0kts
18-Oct-20 10:30 37.728598 -122.209996 125 6ft 0kts
18-Oct-20 10:31 37.728598 -122.209996 125 6ft 0kts
18-Oct-20 10:32 37.728598 -122.209996 125 6ft 0kts
18-Oct-20 10:33 37.728598 -122.209996 125 6ft 0kts

Navigation Log

Ident Type
Flight plan parsing failed, navigation log unavailable